Startpagina
METAR-TAF:

METAR-TAF

Vliegvelden :

Florennes, België

Vliegbasis Florennes

breedte: 50-14N, lengte: 004-39E, hoogte: 279 m

Actueel weer

Dit bericht is 24 minuten geleden gemaakt, om 18:25 UTC
Wind 9 kt uit het westen
Temperatuur 17°C
Vochtigheid 63%
Druk 1009 hPa
Zicht 10 km of meer

METAR: EBFS 271825Z AUTO 26009KT 9999 FEW110/// SCT130/// 17/10 Q1009 BLU

Tijdstip: 20:49 (18:49 UTC)

Verwachting

Dit bericht is 3 uur en het 8 minuten geleden gemaakt, om 15:41 UTC
Verwachting geldig van 27 om 19 UTC tot 28 om 07 UTC
Wind 8 kt uit het westzuidwesten
Zicht 10 km of meer
Weinig wolken op 3000 ft
Verspreide wolken op 5000 ft
Gebroken wolken op 14000 ft
Wijzigt naar
van 28 om 02 UTC tot 28 om 04 UTC
Weinig wolken op 1000 ft
Gebroken wolken op 2000 ft
Tijdelijke
van 28 om 04 UTC tot 28 om 07 UTC
Verspreide wolken op 1000 ft
Verspreide wolken op 2000 ft
Gebroken wolken op 20000 ft

TAF: EBFS 271541Z 2719/2807 24008KT 9999 FEW030 SCT050 BKN140 BECMG 2802/2804 FEW010 BKN020 TEMPO 2804/2807 SCT010 SCT020 BKN200

Waarnemingen en weersverwachtingen van meer dan 4000 vliegvelden (METAR en TAF).

De beschikbare stations zijn de gele en rode punten op de kaart.

Ga met uw muis naar het station om de naam te zien.

Klik dan om waarnemingen en weersverwachtingen te zien.

kaart wijzigen: klik op de groene knoppen met een zwart kruis om in te zoomen, op de groene knop met een streepje om uit te zoomen of op de groene pijlen voor aangrenzende kaarten.


METAR-TAF: